Terminal Aerodrome Forecast
Issued by NWS Missoula, MT

Home | Current Version | Previous Version | Text Only | Print | Product List | Glossary On
Versions: 1 2 3 4 5 6 7 8 9 10 11 12 13 14 15 16
000
FTUS45 KMSO 220850 AAA
TAFBTM
TAF AMD
KBTM 220850Z 2209/2306 30010KT 1SM -SHSN BR OVC020
      TEMPO 2209/2211 1/2SM SHSN FZFG VV011
     FM221200 31007KT 6SM BR VCSH OVC030=

USA.gov is the U.S. government's official web portal to all federal, state and local government web resources and services.